Terminal Aerodrome Forecast
Issued by NWS Blacksburg, VA

Home | Current Version | Previous Version | Text Only | Print | Product List | Glossary On
Versions: 1 2 3 4 5 6 7 8 9 10 11 12 13 14 15
000
FTUS41 KRNK 051200 RRA
TAFDAN
TAF
KDAN 051200Z 0512/0612 00000KT 6SM BR SCT003 OVC025
      TEMPO 0512/0514 4SM BR OVC003
     FM051500 32004KT P6SM SCT020 OVC250
     FM051700 36006KT P6SM BKN250
     FM052300 03005KT P6SM SCT150 OVC250
     FM060600 06004KT 6SM -RA SCT015 OVC050
     FM060900 06006KT 4SM -RA OVC012=

USA.gov is the U.S. government's official web portal to all federal, state and local government web resources and services.